createdAt,value
2022-08-28T00:00:12.498Z,76.51
2022-08-28T00:01:12.495Z,76.01
2022-08-28T00:02:12.482Z,75.91
2022-08-28T00:03:12.573Z,75.91
2022-08-28T00:04:12.463Z,75.71
2022-08-28T00:05:12.460Z,75.71
2022-08-28T00:06:12.461Z,75.71
2022-08-28T00:07:12.439Z,75.71
2022-08-28T00:08:12.645Z,75.98
2022-08-28T00:09:12.401Z,75.81
2022-08-28T00:10:12.401Z,75.71
2022-08-28T00:11:12.389Z,75.91
2022-08-28T00:12:12.378Z,76.11
2022-08-28T00:13:12.368Z,76.11
2022-08-28T00:14:12.387Z,76.11
2022-08-28T00:15:12.891Z,76.21
2022-08-28T00:16:12.416Z,76.11
2022-08-28T00:17:12.337Z,76.11
2022-08-28T00:18:12.489Z,76.31
2022-08-28T00:19:12.298Z,76.62
2022-08-28T00:20:12.410Z,76.72
2022-08-28T00:21:12.288Z,76.72
2022-08-28T00:22:12.275Z,76.51
2022-08-28T00:23:12.285Z,76.62
2022-08-28T00:24:12.276Z,76.92
2022-08-28T00:25:12.235Z,77.02
2022-08-28T00:26:12.231Z,77.12
2022-08-28T00:27:12.236Z,77.26
2022-08-28T00:28:23.465Z,77.15
2022-08-28T00:29:12.261Z,77.26
2022-08-28T00:30:12.188Z,77.36
2022-08-28T00:31:12.222Z,77.66
2022-08-28T00:32:12.167Z,77.66
2022-08-28T00:33:12.152Z,77.66
2022-08-28T00:34:12.145Z,77.76
2022-08-28T00:35:12.160Z,77.86
2022-08-28T00:36:12.145Z,77.86
2022-08-28T00:37:12.152Z,78.06
2022-08-28T00:38:12.253Z,77.97
2022-08-28T00:39:12.108Z,77.86
2022-08-28T00:40:12.134Z,77.97
2022-08-28T00:41:12.072Z,77.97
2022-08-28T00:42:12.063Z,78.06
2022-08-28T00:43:12.050Z,78.17
2022-08-28T00:44:12.045Z,78.17
2022-08-28T00:45:12.032Z,77.97
2022-08-28T00:46:12.108Z,78.06
2022-08-28T00:47:12.013Z,78.47
2022-08-28T00:48:12.147Z,77.97
2022-08-28T00:49:12.077Z,77.86
2022-08-28T00:50:12.010Z,77.66
2022-08-28T00:51:11.983Z,77.66
2022-08-28T00:52:12.469Z,77.76
2022-08-28T00:53:11.966Z,77.97
2022-08-28T00:54:11.937Z,77.86
2022-08-28T00:55:11.924Z,77.76
2022-08-28T00:56:12.846Z,77.56
2022-08-28T00:57:11.901Z,77.66
2022-08-28T00:58:12.067Z,77.97
2022-08-28T00:59:11.900Z,77.46
2022-08-28T01:00:11.880Z,77.56
2022-08-28T01:01:11.863Z,77.29
2022-08-28T01:02:11.857Z,77.39
2022-08-28T01:03:11.906Z,77.39
2022-08-28T01:04:11.851Z,77.50
2022-08-28T01:05:11.822Z,77.19
2022-08-28T01:06:11.809Z,76.89
2022-08-28T01:07:11.813Z,76.99
2022-08-28T01:08:11.986Z,77.09
2022-08-28T01:09:11.802Z,77.39
2022-08-28T01:10:11.772Z,77.39
2022-08-28T01:11:11.763Z,77.19
2022-08-28T01:12:11.763Z,77.29
2022-08-28T01:13:11.737Z,77.39
2022-08-28T01:14:11.739Z,77.39
2022-08-28T01:15:11.742Z,76.99
2022-08-28T01:16:11.742Z,75.98
2022-08-28T01:17:11.700Z,76.99
2022-08-28T01:18:11.794Z,77.09
2022-08-28T01:19:11.679Z,77.19
2022-08-28T01:20:11.666Z,77.50
2022-08-28T01:21:12.729Z,77.19
2022-08-28T01:22:11.658Z,76.18
2022-08-28T01:23:11.633Z,76.18
2022-08-28T01:24:11.623Z,76.48
2022-08-28T01:25:11.612Z,76.59
2022-08-28T01:26:11.864Z,76.28
2022-08-28T01:27:11.594Z,76.69
2022-08-28T01:28:11.821Z,76.59
2022-08-28T01:29:11.580Z,76.28
2022-08-28T01:30:11.560Z,76.08
2022-08-28T01:31:12.114Z,75.98
2022-08-28T01:32:11.565Z,76.18
2022-08-28T01:33:11.987Z,75.88
2022-08-28T01:34:11.523Z,75.88
2022-08-28T01:35:11.510Z,76.39
2022-08-28T01:36:11.499Z,76.59
2022-08-28T01:37:11.510Z,76.99
2022-08-28T01:38:11.790Z,76.99
2022-08-28T01:39:11.469Z,77.19
2022-08-28T01:40:11.526Z,77.29
2022-08-28T01:41:11.480Z,76.62
2022-08-28T01:42:11.437Z,74.66
2022-08-28T01:43:11.469Z,74.50
2022-08-28T01:44:11.424Z,74.57
2022-08-28T01:45:11.402Z,75.07
2022-08-28T01:46:11.477Z,74.46
2022-08-28T01:47:11.385Z,74.77
2022-08-28T01:48:11.604Z,74.57
2022-08-28T01:49:11.402Z,74.26
2022-08-28T01:50:11.354Z,73.46
2022-08-28T01:51:11.375Z,73.46
2022-08-28T01:52:11.774Z,73.90
2022-08-28T01:53:12.510Z,73.05
2022-08-28T01:54:11.965Z,73.19
2022-08-28T01:55:11.322Z,72.85
2022-08-28T01:56:11.295Z,73.15
2022-08-28T01:57:11.285Z,72.04
2022-08-28T01:58:11.425Z,72.34
2022-08-28T01:59:11.318Z,71.94
2022-08-28T02:00:11.273Z,71.13
2022-08-28T02:01:11.348Z,70.93
2022-08-28T02:02:11.236Z,70.93
2022-08-28T02:03:11.224Z,71.13
2022-08-28T02:04:11.306Z,71.33
2022-08-28T02:05:11.199Z,71.84
2022-08-28T02:06:11.210Z,71.94
2022-08-28T02:07:11.174Z,71.53
2022-08-28T02:08:11.179Z,71.33
2022-08-28T02:09:14.468Z,71.23
2022-08-28T02:10:11.149Z,71.23
2022-08-28T02:11:11.133Z,71.64
2022-08-28T02:12:11.151Z,71.33
2022-08-28T02:13:11.112Z,71.53
2022-08-28T02:14:11.111Z,71.33
2022-08-28T02:15:11.098Z,71.44
2022-08-28T02:16:11.207Z,71.33
2022-08-28T02:17:11.069Z,71.47
2022-08-28T02:18:11.151Z,71.67
2022-08-28T02:19:11.048Z,72.08
2022-08-28T02:20:11.064Z,71.53
2022-08-28T02:21:11.035Z,71.64
2022-08-28T02:22:11.019Z,71.84
2022-08-28T02:23:11.044Z,71.53
2022-08-28T02:24:11.006Z,71.53
2022-08-28T02:25:10.987Z,71.73
2022-08-28T02:26:10.980Z,71.64
2022-08-28T02:27:10.964Z,71.73
2022-08-28T02:28:11.289Z,71.67
2022-08-28T02:29:10.970Z,71.87
2022-08-28T02:30:10.942Z,71.87
2022-08-28T02:31:10.997Z,72.17
2022-08-28T02:32:10.917Z,72.08
2022-08-28T02:33:10.900Z,72.17
2022-08-28T02:34:10.894Z,72.48
2022-08-28T02:35:12.086Z,72.48
2022-08-28T02:36:10.872Z,71.37
2022-08-28T02:37:10.863Z,71.47
2022-08-28T02:38:10.868Z,70.96
2022-08-28T02:39:10.840Z,70.66
2022-08-28T02:40:10.876Z,70.76
2022-08-28T02:41:10.845Z,70.96
2022-08-28T02:42:10.821Z,70.86
2022-08-28T02:43:10.803Z,70.86
2022-08-28T02:44:10.792Z,70.56
2022-08-28T02:45:10.793Z,70.56
2022-08-28T02:46:10.840Z,70.25
2022-08-28T02:47:10.778Z,70.25
2022-08-28T02:48:17.194Z,70.25
2022-08-28T02:49:10.750Z,70.36
2022-08-28T02:50:10.728Z,69.95
2022-08-28T02:51:10.722Z,70.66
2022-08-28T02:52:10.709Z,70.25
2022-08-28T02:53:10.712Z,70.05
2022-08-28T02:54:10.690Z,69.75
2022-08-28T02:55:10.675Z,70.25
2022-08-28T02:56:10.666Z,70.29
2022-08-28T02:57:10.677Z,70.39
2022-08-28T02:58:10.804Z,70.69
2022-08-28T02:59:10.634Z,70.59
2022-08-28T03:00:10.624Z,70.39
2022-08-28T03:01:10.702Z,70.18
2022-08-28T03:02:10.674Z,70.29
2022-08-28T03:03:10.622Z,70.29
2022-08-28T03:04:10.606Z,70.29
2022-08-28T03:05:10.574Z,70.39
2022-08-28T03:06:10.563Z,70.69
2022-08-28T03:07:11.224Z,70.79
2022-08-28T03:08:10.563Z,70.49
2022-08-28T03:09:10.530Z,70.29
2022-08-28T03:10:10.527Z,70.39
2022-08-28T03:11:10.509Z,70.49
2022-08-28T03:12:10.501Z,70.79
2022-08-28T03:13:10.491Z,71.09
2022-08-28T03:14:10.520Z,71.09
2022-08-28T03:15:10.476Z,71.50
2022-08-28T03:16:10.463Z,71.60
2022-08-28T03:17:10.440Z,71.30
2022-08-28T03:18:11.206Z,70.79
2022-08-28T03:19:10.426Z,70.69
2022-08-28T03:20:10.424Z,71.09
2022-08-28T03:21:10.421Z,71.00
2022-08-28T03:22:10.407Z,71.30
2022-08-28T03:23:10.388Z,70.89
2022-08-28T03:24:10.405Z,71.00
2022-08-28T03:25:10.360Z,70.79
2022-08-28T03:26:10.359Z,70.69
2022-08-28T03:27:10.360Z,70.79
2022-08-28T03:28:10.340Z,70.79
2022-08-28T03:29:10.320Z,71.03
2022-08-28T03:30:10.338Z,71.03
2022-08-28T03:31:10.349Z,71.33
2022-08-28T03:32:10.294Z,71.64
2022-08-28T03:33:10.278Z,71.23
2022-08-28T03:34:10.268Z,71.44
2022-08-28T03:35:10.267Z,71.33
2022-08-28T03:36:10.269Z,71.53
2022-08-28T03:37:10.244Z,71.94
2022-08-28T03:38:10.267Z,71.94
2022-08-28T03:39:10.222Z,71.94
2022-08-28T03:40:10.261Z,71.64
2022-08-28T03:41:10.194Z,71.84
2022-08-28T03:42:10.213Z,71.73
2022-08-28T03:43:10.176Z,71.84
2022-08-28T03:44:10.174Z,71.84
2022-08-28T03:45:10.156Z,72.04
2022-08-28T03:46:10.222Z,72.44
2022-08-28T03:47:10.130Z,72.28
2022-08-28T03:48:10.157Z,72.17
2022-08-28T03:49:10.120Z,72.48
2022-08-28T03:50:10.153Z,72.68
2022-08-28T03:51:10.162Z,72.78
2022-08-28T03:52:10.077Z,72.48
2022-08-28T03:53:10.076Z,72.58
2022-08-28T03:54:10.087Z,72.58
2022-08-28T03:55:10.052Z,72.88
2022-08-28T03:56:10.039Z,72.88
2022-08-28T03:57:10.060Z,72.68
2022-08-28T03:58:10.018Z,72.88
2022-08-28T03:59:10.020Z,73.19
2022-08-28T04:00:10.000Z,73.09
2022-08-28T04:01:10.100Z,72.99
2022-08-28T04:02:09.983Z,72.88
2022-08-28T04:03:10.028Z,73.09
2022-08-28T04:04:09.974Z,73.09
2022-08-28T04:05:09.969Z,73.19
2022-08-28T04:06:09.934Z,72.99
2022-08-28T04:07:10.004Z,73.09
2022-08-28T04:08:09.964Z,73.32
2022-08-28T04:09:09.856Z,73.43
2022-08-28T04:10:09.851Z,73.53
2022-08-28T04:11:09.855Z,73.73
2022-08-28T04:12:09.822Z,73.63
2022-08-28T04:13:09.813Z,73.63
2022-08-28T04:14:09.798Z,73.73
2022-08-28T04:15:09.793Z,73.53
2022-08-28T04:16:09.829Z,73.63
2022-08-28T04:17:09.863Z,73.73
2022-08-28T04:18:09.830Z,73.73
2022-08-28T04:19:09.754Z,73.93
2022-08-28T04:20:10.606Z,73.63
2022-08-28T04:21:09.731Z,73.63
2022-08-28T04:22:09.715Z,73.83
2022-08-28T04:23:09.733Z,73.93
2022-08-28T04:24:09.993Z,74.24
2022-08-28T04:25:09.693Z,74.24
2022-08-28T04:26:09.681Z,74.24
2022-08-28T04:27:09.671Z,74.64
2022-08-28T04:28:09.710Z,74.33
2022-08-28T04:29:09.678Z,74.13
2022-08-28T04:30:09.973Z,74.24
2022-08-28T04:31:09.633Z,74.04
2022-08-28T04:32:09.707Z,74.54
2022-08-28T04:33:09.617Z,74.44
2022-08-28T04:34:09.620Z,74.33
2022-08-28T04:35:09.583Z,74.13
2022-08-28T04:36:09.577Z,74.13
2022-08-28T04:37:09.563Z,74.33
2022-08-28T04:38:09.551Z,74.33
2022-08-28T04:39:09.545Z,74.54
2022-08-28T04:40:09.583Z,74.44
2022-08-28T04:41:09.527Z,74.33
2022-08-28T04:42:09.563Z,74.64
2022-08-28T04:43:09.511Z,75.35
2022-08-28T04:44:09.485Z,75.04
2022-08-28T04:45:09.490Z,74.54
2022-08-28T04:46:09.628Z,74.64
2022-08-28T04:47:09.457Z,74.64
2022-08-28T04:48:10.522Z,74.44
2022-08-28T04:49:09.435Z,74.74
2022-08-28T04:50:09.432Z,74.95
2022-08-28T04:51:09.433Z,75.04
2022-08-28T04:52:09.423Z,75.25
2022-08-28T04:53:09.417Z,75.55
2022-08-28T04:54:09.386Z,74.95
2022-08-28T04:55:09.378Z,75.15
2022-08-28T04:56:09.364Z,75.04
2022-08-28T04:57:09.354Z,75.15
2022-08-28T04:58:09.413Z,75.04
2022-08-28T04:59:09.365Z,75.25
2022-08-28T05:00:09.332Z,75.65
2022-08-28T05:01:09.435Z,75.59
2022-08-28T05:02:09.349Z,75.59
2022-08-28T05:03:09.322Z,75.79
2022-08-28T05:04:09.278Z,75.79
2022-08-28T05:05:09.289Z,75.89
2022-08-28T05:06:09.282Z,75.79
2022-08-28T05:07:09.277Z,75.89
2022-08-28T05:08:09.272Z,75.99
2022-08-28T05:09:09.278Z,75.99
2022-08-28T05:10:09.217Z,76.20
2022-08-28T05:11:09.210Z,75.79
2022-08-28T05:12:09.199Z,76.20
2022-08-28T05:13:09.213Z,76.09
2022-08-28T05:14:11.577Z,76.20
2022-08-28T05:15:09.176Z,76.40
2022-08-28T05:16:09.221Z,75.99
2022-08-28T05:17:09.168Z,75.99
2022-08-28T05:18:09.218Z,76.29
2022-08-28T05:19:09.127Z,76.29
2022-08-28T05:20:09.114Z,76.29
2022-08-28T05:21:13.867Z,76.60
2022-08-28T05:22:10.003Z,76.40
2022-08-28T05:23:09.110Z,76.40
2022-08-28T05:24:09.075Z,76.50
2022-08-28T05:25:09.063Z,76.90
2022-08-28T05:26:09.051Z,76.80
2022-08-28T05:27:09.068Z,77.01
2022-08-28T05:28:11.463Z,76.90
2022-08-28T05:29:09.050Z,76.90
2022-08-28T05:30:09.011Z,76.80
2022-08-28T05:31:09.084Z,76.60
2022-08-28T05:32:08.986Z,76.50
2022-08-28T05:33:08.985Z,76.80
2022-08-28T05:34:08.994Z,76.70
2022-08-28T05:35:08.960Z,76.70
2022-08-28T05:36:08.951Z,76.70
2022-08-28T05:37:08.940Z,76.80
2022-08-28T05:38:09.001Z,76.80
2022-08-28T05:39:08.916Z,76.70
2022-08-28T05:40:08.928Z,76.70
2022-08-28T05:41:08.899Z,76.90
2022-08-28T05:42:08.929Z,76.80
2022-08-28T05:43:08.880Z,76.80
2022-08-28T05:44:08.957Z,76.50
2022-08-28T05:45:08.854Z,76.60
2022-08-28T05:46:08.906Z,76.80
2022-08-28T05:47:08.837Z,76.80
2022-08-28T05:48:08.898Z,77.01
2022-08-28T05:49:10.178Z,76.90
2022-08-28T05:50:08.803Z,76.77
2022-08-28T05:51:08.791Z,76.46
2022-08-28T05:52:08.795Z,76.77
2022-08-28T05:53:08.776Z,76.36
2022-08-28T05:54:08.776Z,75.45
2022-08-28T05:55:08.775Z,75.96
2022-08-28T05:56:08.740Z,75.85
2022-08-28T05:57:08.733Z,76.16
2022-08-28T05:58:08.742Z,75.42
2022-08-28T05:59:08.731Z,75.52
2022-08-28T06:00:08.704Z,74.81
2022-08-28T06:01:08.691Z,75.25
2022-08-28T06:02:08.727Z,75.45
2022-08-28T06:03:09.154Z,76.06
2022-08-28T06:04:08.803Z,75.85
2022-08-28T06:05:08.647Z,75.31
2022-08-28T06:06:08.638Z,75.42
2022-08-28T06:07:08.632Z,75.01
2022-08-28T06:08:08.653Z,74.81
2022-08-28T06:09:08.629Z,74.67
2022-08-28T06:10:10.617Z,73.86
2022-08-28T06:11:08.586Z,73.66
2022-08-28T06:12:08.581Z,73.96
2022-08-28T06:13:08.568Z,73.56
2022-08-28T06:14:08.551Z,73.96
2022-08-28T06:15:08.572Z,73.36
2022-08-28T06:16:08.624Z,73.32
2022-08-28T06:17:08.523Z,73.32
2022-08-28T06:18:08.526Z,72.81
2022-08-28T06:19:08.509Z,73.22
2022-08-28T06:20:09.165Z,72.61
2022-08-28T06:21:08.483Z,72.48
2022-08-28T06:22:08.473Z,72.48
2022-08-28T06:23:08.468Z,72.17
2022-08-28T06:24:08.454Z,72.68
2022-08-28T06:25:08.442Z,71.97
2022-08-28T06:26:08.455Z,71.26
2022-08-28T06:27:08.423Z,71.47
2022-08-28T06:28:08.409Z,71.91
2022-08-28T06:29:08.402Z,72.11
2022-08-28T06:30:08.416Z,72.41
2022-08-28T06:31:23.316Z,73.12
2022-08-28T06:32:08.426Z,73.02
2022-08-28T06:33:08.362Z,73.02
2022-08-28T06:34:08.342Z,73.22
2022-08-28T06:35:08.347Z,72.81
2022-08-28T06:36:08.373Z,72.51
2022-08-28T06:37:08.317Z,72.72
2022-08-28T06:38:08.303Z,72.92
2022-08-28T06:39:08.301Z,72.41
2022-08-28T06:40:08.332Z,72.48
2022-08-28T06:41:08.300Z,71.67
2022-08-28T06:42:08.258Z,72.68
2022-08-28T06:43:08.254Z,71.37
2022-08-28T06:44:08.240Z,71.40
2022-08-28T06:45:08.238Z,71.60
2022-08-28T06:46:08.324Z,71.91
2022-08-28T06:47:08.264Z,71.60
2022-08-28T06:48:08.197Z,72.21
2022-08-28T06:49:08.193Z,71.40
2022-08-28T06:50:08.176Z,71.70
2022-08-28T06:51:08.169Z,72.31
2022-08-28T06:52:08.164Z,71.70
2022-08-28T06:53:08.175Z,71.70
2022-08-28T06:54:08.144Z,72.51
2022-08-28T06:55:08.131Z,71.77
2022-08-28T06:56:08.122Z,70.96
2022-08-28T06:57:08.111Z,72.08
2022-08-28T06:58:08.170Z,71.17
2022-08-28T06:59:08.090Z,70.93
2022-08-28T07:00:08.076Z,70.32
2022-08-28T07:01:08.093Z,69.98
2022-08-28T07:02:08.163Z,69.18
2022-08-28T07:03:08.062Z,68.77
2022-08-28T07:04:08.058Z,68.57
2022-08-28T07:05:08.022Z,68.87
2022-08-28T07:06:08.014Z,69.08
2022-08-28T07:07:08.007Z,68.67
2022-08-28T07:08:08.024Z,68.87
2022-08-28T07:09:08.010Z,69.38
2022-08-28T07:10:07.968Z,68.87
2022-08-28T07:11:07.964Z,69.18
2022-08-28T07:12:07.981Z,68.67
2022-08-28T07:13:07.981Z,68.98
2022-08-28T07:14:07.935Z,68.87
2022-08-28T07:15:07.951Z,68.77
2022-08-28T07:16:07.994Z,68.57
2022-08-28T07:17:07.903Z,68.64
2022-08-28T07:18:08.050Z,68.95
2022-08-28T07:19:07.910Z,67.86
2022-08-28T07:20:07.908Z,68.33
2022-08-28T07:21:12.134Z,68.04
2022-08-28T07:22:07.847Z,67.76
2022-08-28T07:23:07.840Z,68.37
2022-08-28T07:24:07.823Z,68.04
2022-08-28T07:25:07.840Z,68.24
2022-08-28T07:26:07.841Z,67.53
2022-08-28T07:27:07.796Z,67.23
2022-08-28T07:28:07.877Z,67.13
2022-08-28T07:29:10.128Z,67.02
2022-08-28T07:30:07.763Z,66.39
2022-08-28T07:31:07.840Z,67.40
2022-08-28T07:32:07.770Z,66.69
2022-08-28T07:33:07.777Z,66.36
2022-08-28T07:34:07.724Z,66.05
2022-08-28T07:35:07.719Z,65.75
2022-08-28T07:36:07.706Z,64.64
2022-08-28T07:37:11.070Z,64.95
2022-08-28T07:38:07.685Z,65.01
2022-08-28T07:39:07.668Z,65.32
2022-08-28T07:40:07.718Z,64.78
2022-08-28T07:41:07.654Z,65.19
2022-08-28T07:42:07.678Z,63.27
2022-08-28T07:43:07.639Z,63.54
2022-08-28T07:44:07.623Z,63.65
2022-08-28T07:45:07.605Z,64.15
2022-08-28T07:46:07.779Z,63.42
2022-08-28T07:47:08.788Z,62.71
2022-08-28T07:48:11.359Z,61.90
2022-08-28T07:49:07.566Z,62.13
2022-08-28T07:50:07.557Z,62.26
2022-08-28T07:51:07.553Z,62.97
2022-08-28T07:52:07.534Z,63.47
2022-08-28T07:53:07.527Z,62.97
2022-08-28T07:54:11.209Z,62.44
2022-08-28T07:55:07.524Z,61.83
2022-08-28T07:56:07.507Z,62.64
2022-08-28T07:57:07.482Z,62.30
2022-08-28T07:58:07.477Z,61.20
2022-08-28T07:59:07.462Z,62.84
2022-08-28T08:00:07.474Z,63.01
2022-08-28T08:01:07.462Z,61.77
2022-08-28T08:02:07.492Z,61.24
2022-08-28T08:03:07.487Z,60.44
2022-08-28T08:04:07.409Z,59.20
2022-08-28T08:05:07.398Z,58.22
2022-08-28T08:06:07.408Z,59.43
2022-08-28T08:07:07.373Z,60.03
2022-08-28T08:08:07.366Z,60.03
2022-08-28T08:09:07.353Z,58.35
2022-08-28T08:10:07.345Z,59.46
2022-08-28T08:11:07.351Z,58.62
2022-08-28T08:12:07.358Z,58.33
2022-08-28T08:13:07.309Z,58.86
2022-08-28T08:14:07.324Z,59.69
2022-08-28T08:15:07.309Z,60.35
2022-08-28T08:16:07.425Z,61.33
2022-08-28T08:17:07.585Z,61.23
2022-08-28T08:18:07.268Z,60.32
2022-08-28T08:19:07.271Z,60.85
2022-08-28T08:20:07.245Z,60.65
2022-08-28T08:21:07.225Z,61.16
2022-08-28T08:22:07.218Z,61.05
2022-08-28T08:23:07.225Z,61.05
2022-08-28T08:24:07.201Z,60.45
2022-08-28T08:25:07.201Z,60.35
2022-08-28T08:26:07.172Z,60.55
2022-08-28T08:27:07.162Z,61.49
2022-08-28T08:28:07.154Z,61.49
2022-08-28T08:29:07.164Z,61.92
2022-08-28T08:30:07.142Z,62.32
2022-08-28T08:31:07.174Z,61.69
2022-08-28T08:32:07.169Z,61.59
2022-08-28T08:33:07.124Z,60.85
2022-08-28T08:34:07.094Z,60.45
2022-08-28T08:35:07.147Z,60.45
2022-08-28T08:36:07.070Z,60.25
2022-08-28T08:37:07.094Z,60.65
2022-08-28T08:38:07.060Z,61.13
2022-08-28T08:39:09.757Z,60.52
2022-08-28T08:40:10.534Z,60.42
2022-08-28T08:41:07.030Z,60.09
2022-08-28T08:42:07.019Z,59.89
2022-08-28T08:43:07.000Z,59.16
2022-08-28T08:44:06.999Z,59.06
2022-08-28T08:45:07.027Z,58.75
2022-08-28T08:46:07.037Z,57.75
2022-08-28T08:47:10.626Z,58.05
2022-08-28T08:48:06.962Z,57.75
2022-08-28T08:49:06.936Z,58.45
2022-08-28T08:50:06.951Z,57.75
2022-08-28T08:51:06.918Z,57.55
2022-08-28T08:52:06.901Z,57.75
2022-08-28T08:53:06.892Z,57.52
2022-08-28T08:54:06.881Z,58.62
2022-08-28T08:55:06.893Z,57.95
2022-08-28T08:56:06.864Z,58.42
2022-08-28T08:57:06.852Z,57.72
2022-08-28T08:58:06.901Z,57.92
2022-08-28T08:59:06.837Z,57.75
2022-08-28T09:00:06.822Z,58.12
2022-08-28T09:01:06.906Z,57.75
2022-08-28T09:02:06.864Z,58.48
2022-08-28T09:03:06.863Z,57.98
2022-08-28T09:04:06.795Z,58.65
2022-08-28T09:05:06.768Z,57.98
2022-08-28T09:06:06.760Z,58.38
2022-08-28T09:07:06.772Z,58.48
2022-08-28T09:08:06.801Z,58.98
2022-08-28T09:09:06.724Z,58.48
2022-08-28T09:10:07.177Z,58.78
2022-08-28T09:11:06.790Z,59.19
2022-08-28T09:12:06.695Z,58.38
2022-08-28T09:13:06.709Z,58.75
2022-08-28T09:14:06.671Z,58.45
2022-08-28T09:15:06.667Z,59.06
2022-08-28T09:16:06.712Z,58.35
2022-08-28T09:17:06.659Z,58.25
2022-08-28T09:18:06.679Z,57.55
2022-08-28T09:19:06.620Z,57.68
2022-08-28T09:20:06.612Z,58.58
2022-08-28T09:21:06.615Z,58.58
2022-08-28T09:22:06.592Z,59.19
2022-08-28T09:23:12.571Z,58.38
2022-08-28T09:24:10.833Z,58.61
2022-08-28T09:25:06.554Z,58.81
2022-08-28T09:26:06.546Z,58.71
2022-08-28T09:27:08.972Z,58.71
2022-08-28T09:28:06.551Z,58.88
2022-08-28T09:29:06.539Z,59.36
2022-08-28T09:30:08.013Z,57.45
2022-08-28T09:31:06.610Z,57.42
2022-08-28T09:32:06.495Z,57.12
2022-08-28T09:33:06.473Z,56.59
2022-08-28T09:34:06.483Z,56.96
2022-08-28T09:35:06.450Z,55.76
2022-08-28T09:36:06.477Z,56.46
2022-08-28T09:37:06.437Z,55.73
2022-08-28T09:38:06.498Z,54.72
2022-08-28T09:39:06.434Z,55.33
2022-08-28T09:40:06.483Z,55.78
2022-08-28T09:41:06.386Z,55.05
2022-08-28T09:42:06.394Z,53.62
2022-08-28T09:43:06.368Z,52.39
2022-08-28T09:44:06.384Z,52.19
2022-08-28T09:45:09.566Z,51.27
2022-08-28T09:46:06.408Z,51.12
2022-08-28T09:47:06.328Z,53.47
2022-08-28T09:48:06.356Z,53.64
2022-08-28T09:49:06.317Z,52.44
2022-08-28T09:50:06.299Z,51.67
2022-08-28T09:51:06.315Z,53.17
2022-08-28T09:52:06.283Z,53.45
2022-08-28T09:53:06.265Z,53.55
2022-08-28T09:54:06.259Z,52.01
2022-08-28T09:55:06.324Z,51.51
2022-08-28T09:56:06.240Z,51.44
2022-08-28T09:57:06.247Z,52.42
2022-08-28T09:58:06.243Z,51.42
2022-08-28T09:59:06.222Z,51.21
2022-08-28T10:00:06.212Z,51.39
2022-08-28T10:01:06.187Z,49.89
2022-08-28T10:02:06.294Z,49.99
2022-08-28T10:03:07.747Z,49.99
2022-08-28T10:04:06.182Z,50.21
2022-08-28T10:05:06.178Z,51.32
2022-08-28T10:06:06.172Z,51.12
2022-08-28T10:07:06.140Z,50.62
2022-08-28T10:08:06.263Z,51.51
2022-08-28T10:09:06.115Z,50.99
2022-08-28T10:10:06.599Z,49.58
2022-08-28T10:11:06.092Z,50.09
2022-08-28T10:12:06.115Z,50.89
2022-08-28T10:13:06.126Z,49.37
2022-08-28T10:14:06.079Z,49.26
2022-08-28T10:15:06.069Z,49.66
2022-08-28T10:16:06.183Z,50.04
2022-08-28T10:17:06.061Z,49.14
2022-08-28T10:18:06.045Z,49.34
2022-08-28T10:19:06.041Z,48.54
2022-08-28T10:20:05.995Z,48.86
2022-08-28T10:21:06.006Z,49.81
2022-08-28T10:22:06.026Z,50.74
2022-08-28T10:23:06.012Z,52.04
2022-08-28T10:24:05.959Z,51.49
2022-08-28T10:25:05.954Z,49.58
2022-08-28T10:26:05.945Z,49.57
2022-08-28T10:27:05.941Z,49.62
2022-08-28T10:28:06.001Z,48.82
2022-08-28T10:29:05.903Z,47.19
2022-08-28T10:30:09.978Z,48.79
2022-08-28T10:31:05.967Z,47.77
2022-08-28T10:32:05.900Z,46.45
2022-08-28T10:33:05.873Z,46.45
2022-08-28T10:34:05.889Z,45.55
2022-08-28T10:35:05.869Z,45.87
2022-08-28T10:36:05.853Z,46.67
2022-08-28T10:37:05.835Z,47.07
2022-08-28T10:38:05.958Z,45.97
2022-08-28T10:39:05.831Z,46.67
2022-08-28T10:40:05.824Z,46.57
2022-08-28T10:41:06.009Z,46.27
2022-08-28T10:42:05.783Z,46.67
2022-08-28T10:43:05.776Z,46.89
2022-08-28T10:44:05.755Z,47.19
2022-08-28T10:45:05.760Z,47.39
2022-08-28T10:46:05.816Z,47.30
2022-08-28T10:47:05.765Z,47.60
2022-08-28T10:48:05.816Z,47.79
2022-08-28T10:49:05.720Z,48.10
2022-08-28T10:50:05.723Z,48.25
2022-08-28T10:51:05.680Z,45.75
2022-08-28T10:52:05.681Z,46.37
2022-08-28T10:53:05.689Z,47.45
2022-08-28T10:54:05.659Z,45.55
2022-08-28T10:55:05.655Z,45.87
2022-08-28T10:56:05.691Z,47.47
2022-08-28T10:57:05.654Z,47.83
2022-08-28T10:58:05.636Z,46.01
2022-08-28T10:59:05.599Z,45.98
2022-08-28T11:00:05.593Z,44.91
2022-08-28T11:01:05.607Z,45.95
2022-08-28T11:02:05.653Z,46.57
2022-08-28T11:03:05.681Z,46.87
2022-08-28T11:04:06.805Z,46.87
2022-08-28T11:05:05.567Z,46.45
2022-08-28T11:06:05.540Z,46.80
2022-08-28T11:07:05.508Z,45.10
2022-08-28T11:08:05.504Z,45.68
2022-08-28T11:09:05.515Z,44.67
2022-08-28T11:10:05.476Z,42.85
2022-08-28T11:11:05.468Z,43.55
2022-08-28T11:12:05.455Z,43.23
2022-08-28T11:13:05.447Z,42.61
2022-08-28T11:14:05.458Z,43.88
2022-08-28T11:15:05.450Z,41.79
2022-08-28T11:16:05.437Z,42.29
2022-08-28T11:17:05.461Z,41.09
2022-08-28T11:18:05.396Z,41.60
2022-08-28T11:19:05.378Z,41.91
2022-08-28T11:20:05.398Z,41.91
2022-08-28T11:21:05.382Z,42.09
2022-08-28T11:22:05.378Z,40.68
2022-08-28T11:23:05.343Z,41.39
2022-08-28T11:24:05.335Z,41.09
2022-08-28T11:25:09.425Z,40.92
2022-08-28T11:26:05.343Z,42.95
2022-08-28T11:27:05.300Z,42.65
2022-08-28T11:28:05.318Z,41.85
2022-08-28T11:29:05.278Z,42.73
2022-08-28T11:30:05.272Z,41.52
2022-08-28T11:31:05.384Z,41.42
2022-08-28T11:32:05.251Z,41.31
2022-08-28T11:33:05.249Z,41.69
2022-08-28T11:34:05.255Z,40.92
2022-08-28T11:35:05.220Z,41.91
2022-08-28T11:36:05.212Z,41.50
2022-08-28T11:37:05.198Z,41.38
2022-08-28T11:38:05.223Z,40.68
2022-08-28T11:39:05.205Z,40.08
2022-08-28T11:40:05.221Z,39.48
2022-08-28T11:41:05.160Z,39.89
2022-08-28T11:42:05.159Z,40.36
2022-08-28T11:43:05.139Z,39.95
2022-08-28T11:44:05.129Z,37.96
2022-08-28T11:45:05.140Z,37.74
2022-08-28T11:46:05.169Z,37.76
2022-08-28T11:47:05.099Z,37.96
2022-08-28T11:48:05.115Z,38.07
2022-08-28T11:49:05.101Z,38.87
2022-08-28T11:50:05.074Z,39.40
2022-08-28T11:51:05.058Z,39.50
2022-08-28T11:52:05.053Z,39.70
2022-08-28T11:53:05.038Z,40.08
2022-08-28T11:54:05.029Z,39.25
2022-08-28T11:55:05.038Z,38.26
2022-08-28T11:56:05.019Z,38.26
2022-08-28T11:57:04.994Z,40.42
2022-08-28T11:58:37.753Z,37.62
2022-08-28T11:59:38.754Z,37.72
2022-08-28T12:00:38.746Z,37.23
2022-08-28T12:01:38.716Z,37.62
2022-08-28T12:02:38.774Z,37.94
2022-08-28T12:03:38.697Z,38.45
2022-08-28T12:04:38.760Z,38.34
2022-08-28T12:05:38.733Z,38.45
2022-08-28T12:06:38.665Z,38.67
2022-08-28T12:07:38.657Z,38.67
2022-08-28T12:08:38.642Z,39.29
2022-08-28T12:09:38.636Z,40.18
2022-08-28T12:10:38.622Z,40.06
2022-08-28T12:11:38.637Z,39.15
2022-08-28T12:12:38.624Z,39.13
2022-08-28T12:13:38.626Z,37.52
2022-08-28T12:14:38.583Z,36.81
2022-08-28T12:15:38.598Z,37.60
2022-08-28T12:16:38.560Z,36.20
2022-08-28T12:17:38.556Z,36.69
2022-08-28T12:18:38.588Z,36.79
2022-08-28T12:19:41.549Z,36.51
2022-08-28T12:20:38.527Z,37.51
2022-08-28T12:21:38.512Z,37.09
2022-08-28T12:22:38.501Z,37.07
2022-08-28T12:23:38.520Z,36.28
2022-08-28T12:24:38.494Z,35.77
2022-08-28T12:25:38.468Z,35.27
2022-08-28T12:26:38.453Z,35.86
2022-08-28T12:27:38.452Z,35.25
2022-08-28T12:28:38.449Z,34.64
2022-08-28T12:29:38.446Z,34.64
2022-08-28T12:30:38.475Z,35.85
2022-08-28T12:31:38.401Z,34.95
2022-08-28T12:32:38.396Z,34.28
2022-08-28T12:33:38.388Z,34.46
2022-08-28T12:34:38.362Z,34.81
2022-08-28T12:35:38.356Z,35.64
2022-08-28T12:36:38.376Z,36.88
2022-08-28T12:37:51.382Z,37.88
2022-08-28T12:38:38.346Z,37.77
2022-08-28T12:39:38.335Z,36.65
2022-08-28T12:40:38.337Z,35.54
2022-08-28T12:41:38.293Z,34.94
2022-08-28T12:42:38.287Z,34.83
2022-08-28T12:43:41.682Z,34.12
2022-08-28T12:44:38.262Z,34.23
2022-08-28T12:45:38.348Z,34.92
2022-08-28T12:46:38.298Z,34.61
2022-08-28T12:47:38.236Z,35.11
2022-08-28T12:48:38.220Z,35.09
2022-08-28T12:49:38.210Z,33.57
2022-08-28T12:50:38.232Z,34.06
2022-08-28T12:51:38.181Z,32.45
2022-08-28T12:52:38.173Z,33.06